.
WxDataArchive / Data Records for 2010-08-03
2010-08-02 August 2010 2010-08-04

Data Records for Tuesday, 03 August 2010

Time	Temp	Chill	HIndex	Humid	Dewpt	 Wind 	HiWind	WindDir	Rain 	Barom 
-----	----	-----	------	-----	-----	------	------	-------	-----	----- 
00:00	76.3	76.3	77.2	83	70.7	0	0	---	0.00	29.969 
00:05	76.3	76.3	77.2	83	70.7	0	0	---	0.00	29.969 
00:10	76.3	76.3	77.2	83	70.7	0	0	---	0.00	29.969 
00:15	76.1	76.1	76.8	84	70.9	0	0	---	0.00	29.968 
00:20	76.1	76.1	76.8	84	70.9	0	0	---	0.00	29.968 
00:25	76.0	76.0	76.7	84	70.8	0	0	---	0.00	29.968 
00:30	76.0	76.0	76.7	84	70.8	0	0	---	0.00	29.967 
00:35	76.0	76.0	76.7	84	70.8	0	0	---	0.00	29.967 
00:40	76.0	76.0	76.7	84	70.8	0	0	---	0.00	29.967 
00:45	76.1	76.1	76.8	84	70.9	0	0	---	0.00	29.969 
00:50	76.1	76.1	76.8	84	70.9	0	0	---	0.00	29.969 
00:55	76.0	76.0	76.7	84	70.8	0	0	---	0.00	29.969 
01:00	76.0	76.0	76.7	84	70.8	0	0	---	0.00	29.971 
01:05	76.0	76.0	76.6	85	71.2	0	0	---	0.00	29.971 
01:10	75.8	75.8	76.2	85	71.0	0	0	---	0.00	29.971 
01:15	75.8	75.8	76.2	85	71.0	0	0	---	0.00	29.981 
01:20	75.8	75.8	76.2	85	71.0	0	0	---	0.00	29.981 
01:25	75.8	75.8	76.1	86	71.3	0	0	---	0.00	29.981 
01:30	75.8	75.8	76.1	86	71.3	0	0	---	0.00	29.984 
01:35	75.8	75.8	76.1	86	71.3	0	0	---	0.00	29.984 
01:40	75.8	75.8	76.1	86	71.3	0	0	---	0.00	29.984 
01:45	75.8	75.8	76.1	86	71.3	0	0	---	0.00	29.983 
01:50	75.8	75.8	76.1	86	71.3	0	0	---	0.00	29.983 
01:55	75.8	75.8	76.1	86	71.3	0	0	---	0.00	29.983 
02:00	75.8	75.8	76.0	87	71.6	0	0	---	0.00	29.977 
02:05	75.8	75.8	75.9	88	72.0	0	0	---	0.00	29.977 
02:10	75.8	75.8	75.9	88	72.0	0	0	---	0.00	29.977 
02:15	75.6	75.6	75.5	88	71.8	0	0	---	0.00	29.968 
02:20	75.4	75.4	75.1	88	71.6	0	0	---	0.00	29.968 
02:25	75.4	75.4	75.1	88	71.6	0	0	---	0.00	29.968 
02:30	75.3	75.3	74.8	89	71.8	0	0	---	0.01	29.969 
02:35	75.3	75.3	74.8	89	71.8	0	0	---	0.00	29.969 
02:40	75.1	75.1	74.4	89	71.6	0	0	---	0.00	29.969 
02:45	75.1	75.1	74.3	90	72.0	0	0	---	0.01	29.959 
02:50	74.9	74.9	74.9	90	71.8	0	0	---	0.00	29.959 
02:55	74.9	74.9	74.9	91	72.1	0	0	---	0.00	29.959 
03:00	74.9	74.9	74.9	91	72.1	0	0	---	0.00	29.956 
03:05	74.7	74.7	74.7	91	71.9	0	0	---	0.00	29.956 
03:10	74.6	74.6	74.6	91	71.8	0	0	---	0.00	29.956 
03:15	74.6	74.6	74.6	92	72.1	0	0	---	0.00	29.952 
03:20	74.6	74.6	74.6	92	72.1	0	0	---	0.00	29.952 
03:25	74.6	74.6	74.6	92	72.1	0	0	---	0.00	29.952 
03:30	74.4	74.4	74.4	92	71.9	0	0	---	0.01	29.953 
03:35	74.4	74.4	74.4	93	72.2	0	0	---	0.00	29.953 
03:40	74.4	74.4	74.4	93	72.2	0	0	---	0.00	29.953 
03:45	74.4	74.4	74.4	93	72.2	0	0	---	0.00	29.955 
03:50	74.2	74.2	74.2	93	72.0	0	0	---	0.00	29.955 
03:55	74.2	74.2	74.2	93	72.0	0	0	---	0.00	29.955 
04:00	74.0	74.0	74.0	94	72.2	0	0	---	0.00	29.949 
04:05	74.2	74.2	74.2	94	72.4	0	0	---	0.00	29.949 
04:10	74.2	74.2	74.2	94	72.4	0	0	---	0.00	29.949 
04:15	74.2	74.2	74.2	94	72.4	0	0	---	0.00	29.938 
04:20	74.2	74.2	74.2	94	72.4	0	0	---	0.00	29.938 
04:25	74.2	74.2	74.2	94	72.4	0	1	90	0.00	29.938 
04:30	74.2	74.2	74.2	94	72.4	0	1	---	0.00	29.938 
04:35	74.0	74.0	74.0	94	72.2	0	0	---	0.00	29.938 
04:40	74.0	74.0	74.0	95	72.5	0	0	---	0.00	29.938 
04:45	74.0	74.0	74.0	95	72.5	0	0	---	0.00	29.937 
04:50	74.0	74.0	74.0	95	72.5	0	0	---	0.00	29.937 
04:55	73.9	73.9	73.9	95	72.4	0	0	---	0.00	29.937 
05:00	73.9	73.9	73.9	95	72.4	0	0	---	0.00	29.938 
05:05	73.7	73.7	73.7	95	72.2	0	0	---	0.00	29.938 
05:10	73.7	73.7	73.7	95	72.2	0	0	---	0.00	29.938 
05:15	73.7	73.7	73.7	95	72.2	0	0	---	0.00	29.938 
05:20	73.7	73.7	73.7	95	72.2	0	0	---	0.00	29.938 
05:25	73.7	73.7	73.7	95	72.2	0	0	---	0.00	29.938 
05:30	73.7	73.7	73.7	95	72.2	0	0	---	0.00	29.944 
05:35	73.7	73.7	73.7	95	72.2	0	0	---	0.00	29.944 
05:40	73.7	73.7	73.7	95	72.2	0	0	---	0.00	29.944 
05:45	73.7	73.7	73.7	95	72.2	0	0	---	0.00	29.963 
05:50	73.5	73.5	73.5	95	72.0	0	0	---	0.00	29.963 
05:55	73.7	73.7	73.7	95	72.2	0	0	---	0.01	29.963 
06:00	73.7	73.7	73.7	95	72.2	0	0	---	0.00	29.956 
06:05	73.7	73.7	73.7	95	72.2	0	0	---	0.00	29.956 
06:10	73.9	73.9	73.9	95	72.4	0	0	---	0.00	29.956 
06:15	73.9	73.9	73.9	95	72.4	0	0	---	0.00	29.965 
06:20	73.9	73.9	73.9	95	72.4	0	0	---	0.00	29.965 
06:25	73.7	73.7	73.7	95	72.2	0	0	---	0.00	29.965 
06:30	73.7	73.7	73.7	95	72.2	0	0	---	0.00	29.971 
06:35	73.7	73.7	73.7	95	72.2	0	0	---	0.00	29.971 
06:40	73.7	73.7	73.7	96	72.5	0	0	---	0.00	29.971 
06:45	73.7	73.7	73.7	96	72.5	0	0	---	0.00	29.970 
06:50	73.7	73.7	73.7	96	72.5	0	0	---	0.01	29.970 
06:55	73.7	73.7	73.7	96	72.5	0	0	---	0.00	29.970 
07:00	73.9	73.9	73.9	96	72.7	0	0	---	0.00	29.977 
07:05	73.9	73.9	73.9	96	72.7	0	0	---	0.00	29.977 
07:10	73.9	73.9	73.9	96	72.7	0	0	---	0.00	29.977 
07:15	73.9	73.9	73.9	96	72.7	0	0	---	0.00	29.981 
07:20	73.9	73.9	73.9	96	72.7	0	1	90	0.01	29.981 
07:25	73.9	73.9	73.9	96	72.7	0	2	90	0.00	29.981 
07:30	72.8	72.8	72.8	94	71.0	0	2	90	0.00	29.976 
07:35	72.3	72.3	72.3	95	70.8	0	0	---	0.00	29.976 
07:40	72.0	72.0	72.0	95	70.5	0	0	---	0.00	29.976 
07:45	72.1	72.1	72.1	95	70.6	0	0	---	0.00	29.972 
07:50	72.3	72.3	72.3	95	70.8	0	0	---	0.01	29.972 
07:55	72.5	72.5	72.5	95	71.0	0	0	---	0.00	29.972 
08:00	72.7	72.7	72.7	95	71.2	0	0	---	0.00	29.980 
08:05	72.8	72.8	72.8	95	71.3	0	0	---	0.01	29.980 
08:10	72.8	72.8	72.8	95	71.3	0	0	---	0.00	29.980 
08:15	73.2	73.2	73.2	96	72.0	0	1	90	0.00	29.978 
08:20	73.5	73.5	73.5	96	72.3	0	0	---	0.00	29.978 
08:25	73.5	73.5	73.5	96	72.3	0	1	90	0.00	29.978 
08:30	73.5	73.5	73.5	95	72.0	0	1	90	0.01	29.983 
08:35	73.2	73.2	73.2	95	71.7	0	1	90	0.00	29.983 
08:40	72.8	72.8	72.8	95	71.3	0	0	---	0.00	29.983 
08:45	72.7	72.7	72.7	95	71.2	0	0	---	0.00	29.986 
08:50	72.8	72.8	72.8	96	71.6	0	1	90	0.00	29.986 
08:55	73.2	73.2	73.2	96	72.0	0	1	90	0.01	29.986 
09:00	73.2	73.2	73.2	96	72.0	0	0	---	0.00	29.992 
09:05	73.2	73.2	73.2	95	71.7	0	0	---	0.01	29.992 
09:10	73.0	73.0	73.0	95	71.5	0	0	---	0.00	29.992 
09:15	73.0	73.0	73.0	95	71.5	0	0	---	0.06	30.006 
09:20	72.8	72.8	72.8	95	71.3	0	2	90	0.07	30.006 
09:25	72.7	72.7	72.7	95	71.2	0	0	---	0.02	30.006 
09:30	71.8	71.8	71.8	94	70.0	1	2	90	0.00	30.027 
09:35	70.3	70.3	70.3	94	68.5	1	3	90	0.03	30.027 
09:40	69.6	69.6	69.6	95	68.1	0	1	315	0.07	30.027 
09:45	69.6	69.6	69.6	95	68.1	0	1	315	0.13	30.024 
09:50	69.6	69.6	69.6	95	68.1	0	0	---	0.06	30.024 
09:55	69.9	69.9	69.9	95	68.4	0	0	---	0.07	30.024 
10:00	69.9	69.9	69.9	96	68.7	0	0	---	0.02	30.021 
10:05	69.9	69.9	69.9	95	68.4	0	1	315	0.02	30.021 
10:10	69.8	69.8	69.8	95	68.3	0	0	---	0.01	30.021 
10:15	69.4	69.4	69.4	95	67.9	0	1	315	0.01	30.009 
10:20	69.3	69.3	69.3	95	67.8	0	0	---	0.01	30.009 
10:25	69.3	69.3	69.3	96	68.1	0	0	---	0.00	30.009 
10:30	69.3	69.3	69.3	96	68.1	0	1	315	0.01	29.999 
10:35	69.6	69.6	69.6	96	68.4	0	2	315	0.01	29.999 
10:40	69.6	69.6	69.6	96	68.4	0	1	315	0.01	29.999 
10:45	69.6	69.6	69.6	96	68.4	0	2	315	0.01	29.977 
10:50	69.6	69.6	69.6	96	68.4	0	2	315	0.01	29.977 
10:55	69.6	69.6	69.6	96	68.4	0	1	315	0.01	29.977 
11:00	69.6	69.6	69.6	96	68.4	0	0	---	0.00	29.979 
11:05	69.6	69.6	69.6	96	68.4	0	2	315	0.01	29.979 
11:10	69.6	69.6	69.6	96	68.4	0	2	315	0.00	29.979 
11:15	69.6	69.6	69.6	96	68.4	0	2	315	0.01	29.971 
11:20	69.6	69.6	69.6	96	68.4	0	0	---	0.00	29.971 
11:25	69.8	69.8	69.8	96	68.6	0	0	---	0.00	29.971 
11:30	69.9	69.9	69.9	96	68.7	0	1	315	0.00	29.974 
11:35	69.9	69.9	69.9	96	68.7	0	0	---	0.00	29.974 
11:40	69.9	69.9	69.9	96	68.7	0	0	---	0.01	29.974 
11:45	69.9	69.9	69.9	96	68.7	0	1	315	0.00	29.983 
11:50	69.9	69.9	69.9	96	68.7	0	1	315	0.00	29.983 
11:55	69.9	69.9	69.9	96	68.7	0	2	315	0.00	29.983 
12:00	70.3	70.3	70.3	96	69.1	0	1	315	0.00	29.981 
12:05	70.3	70.3	70.3	96	69.1	0	1	315	0.00	29.981 
12:10	70.4	70.4	70.4	96	69.2	0	3	315	0.00	29.981 
12:15	70.4	70.4	70.4	96	69.2	0	1	315	0.00	29.968 
12:20	70.4	70.4	70.4	96	69.2	0	1	315	0.00	29.968 
12:25	70.6	70.6	70.6	96	69.4	0	3	315	0.00	29.968 
12:30	70.8	70.8	70.8	96	69.6	1	3	315	0.00	29.949 
12:35	71.1	71.1	71.1	96	69.9	0	2	112	0.00	29.949 
12:40	71.3	71.3	71.3	96	70.1	0	1	112	0.00	29.949 
12:45	71.8	71.8	71.8	96	70.6	0	1	112	0.00	29.957 
12:50	72.1	72.1	72.1	96	70.9	0	2	112	0.00	29.957 
12:55	72.5	72.5	72.5	96	71.3	0	3	315	0.00	29.957 
13:00	72.7	72.7	72.7	96	71.5	0	2	315	0.00	29.950 
13:05	73.0	73.0	73.0	96	71.8	0	2	315	0.00	29.950 
13:10	73.3	73.3	73.3	96	72.1	0	3	270	0.00	29.950 
13:15	73.7	73.7	73.7	96	72.5	0	5	68	0.00	29.957 
13:20	74.0	74.0	74.0	96	72.8	0	2	68	0.00	29.957 
13:25	74.2	74.2	74.2	96	73.0	0	2	68	0.00	29.957 
13:30	74.6	74.6	74.6	96	73.4	0	2	68	0.00	29.958 
13:35	74.6	74.6	74.6	95	73.1	1	3	248	0.00	29.958 
13:40	74.6	74.6	74.6	95	73.1	0	3	248	0.00	29.958 
13:45	74.7	74.7	74.7	95	73.2	1	3	248	0.00	29.960 
13:50	75.3	75.3	73.8	95	73.8	0	2	248	0.00	29.960 
13:55	75.8	75.8	75.1	94	73.9	0	3	248	0.00	29.960 
14:00	76.5	76.5	76.8	94	74.6	1	3	248	0.00	29.958 
14:05	76.8	76.8	77.6	92	74.3	2	5	248	0.00	29.958 
14:10	77.2	77.2	78.7	89	73.7	1	3	270	0.00	29.958 
14:15	77.9	77.9	80.2	86	73.4	1	4	270	0.00	29.949 
14:20	78.5	78.5	81.4	84	73.2	1	3	270	0.00	29.949 
14:25	79.2	79.2	82.8	82	73.2	1	4	248	0.00	29.949 
14:30	79.9	79.9	84.0	80	73.2	1	2	248	0.00	29.943 
14:35	80.3	80.3	84.3	76	72.0	2	3	270	0.00	29.943 
14:40	81.1	81.1	85.5	74	72.0	2	3	315	0.00	29.943 
14:45	81.4	81.4	85.9	73	71.9	2	4	292	0.00	29.939 
14:50	82.0	82.0	86.7	71	71.6	2	4	292	0.00	29.939 
14:55	82.6	82.6	87.8	71	72.2	1	3	292	0.00	29.939 
15:00	83.2	83.2	89.1	71	72.8	1	4	292	0.00	29.929 
15:05	83.4	83.4	88.4	67	71.3	1	3	315	0.00	29.929 
15:10	83.2	83.2	88.2	68	71.5	0	3	315	0.00	29.929 
15:15	83.4	83.4	88.6	68	71.7	1	3	315	0.00	29.927 
15:20	83.6	83.6	88.5	66	71.0	1	4	270	0.00	29.927 
15:25	83.4	83.4	88.1	66	70.8	0	2	270	0.00	29.927 
15:30	83.2	83.2	88.0	67	71.1	1	3	270	0.00	29.925 
15:35	83.4	83.4	88.9	69	72.1	1	3	248	0.00	29.925 
15:40	84.0	84.0	89.2	66	71.4	1	4	270	0.00	29.925 
15:45	84.1	84.1	89.1	65	71.0	0	3	270	0.00	29.919 
15:50	83.8	83.8	89.1	67	71.6	1	3	270	0.00	29.919 
15:55	83.4	83.4	88.1	66	70.8	1	2	270	0.00	29.919 
16:00	83.6	83.6	89.3	69	72.3	1	6	292	0.00	29.922 
16:05	83.6	83.6	88.5	66	71.0	1	3	292	0.00	29.922 
16:10	83.6	83.6	89.0	68	71.9	1	3	292	0.00	29.922 
16:15	84.1	84.1	90.0	68	72.4	1	5	135	0.00	29.918 
16:20	84.7	84.7	90.6	66	72.1	1	3	112	0.00	29.918 
16:25	84.7	84.7	90.6	66	72.1	1	3	202	0.00	29.918 
16:30	84.9	84.9	91.7	68	73.1	1	3	0	0.00	29.919 
16:35	84.9	84.9	91.7	68	73.1	1	4	248	0.00	29.919 
16:40	84.9	84.9	90.7	65	71.8	1	3	270	0.00	29.919 
16:45	84.5	84.5	89.9	65	71.4	2	5	270	0.00	29.913 
16:50	84.1	84.1	90.0	68	72.4	1	2	270	0.00	29.913 
16:55	84.0	84.0	89.8	68	72.3	1	4	248	0.00	29.913 
17:00	83.8	83.8	89.7	69	72.5	1	3	225	0.00	29.908 
17:05	83.8	83.8	89.1	67	71.6	1	3	270	0.00	29.908 
17:10	83.6	83.6	88.7	67	71.5	1	4	248	0.00	29.908 
17:15	83.4	83.4	88.6	68	71.7	1	3	270	0.00	29.909 
17:20	83.4	83.4	88.6	68	71.7	1	4	315	0.00	29.909 
17:25	83.4	83.4	88.9	69	72.1	1	3	292	0.00	29.909 
17:30	83.4	83.4	88.9	69	72.1	1	3	292	0.00	29.909 
17:35	83.6	83.6	89.9	71	73.2	0	2	248	0.00	29.909 
17:40	84.0	84.0	90.8	71	73.6	0	2	248	0.00	29.909 
17:45	84.1	84.1	90.4	69	72.8	1	3	270	0.00	29.905 
17:50	84.1	84.1	90.4	69	72.8	1	3	292	0.00	29.905 
17:55	84.0	84.0	90.2	69	72.7	1	3	225	0.00	29.905 
18:00	84.0	84.0	90.5	70	73.1	0	1	225	0.00	29.906 
18:05	84.0	84.0	90.2	69	72.7	0	3	315	0.00	29.906 
18:10	83.8	83.8	90.0	70	72.9	1	3	315	0.00	29.906 
18:15	83.6	83.6	89.9	71	73.2	0	1	315	0.00	29.905 
18:20	83.6	83.6	90.2	72	73.6	0	1	315	0.00	29.905 
18:25	83.4	83.4	89.8	72	73.4	0	1	315	0.00	29.905 
18:30	83.4	83.4	89.5	71	73.0	0	2	315	0.00	29.898 
18:35	83.4	83.4	89.8	72	73.4	0	1	315	0.00	29.898 
18:40	83.2	83.2	89.1	71	72.8	0	1	315	0.00	29.898 
18:45	83.4	83.4	89.2	70	72.6	0	2	315	0.00	29.901 
18:50	83.8	83.8	90.0	70	72.9	1	3	315	0.00	29.901 
18:55	84.1	84.1	90.7	70	73.2	0	1	315	0.00	29.901 
19:00	84.3	84.3	91.1	70	73.4	0	1	315	0.00	29.895 
19:05	84.5	84.5	91.2	69	73.2	0	2	315	0.00	29.895 
19:10	84.5	84.5	91.2	69	73.2	1	2	315	0.00	29.895 
19:15	84.5	84.5	91.2	69	73.2	1	3	315	0.00	29.897 
19:20	84.3	84.3	90.8	69	73.0	1	3	315	0.00	29.897 
19:25	84.1	84.1	90.7	70	73.2	0	2	248	0.00	29.897 
19:30	84.0	84.0	90.5	70	73.1	0	1	248	0.00	29.903 
19:35	83.8	83.8	90.4	71	73.4	0	1	338	0.00	29.903 
19:40	83.4	83.4	89.8	72	73.4	0	1	338	0.00	29.903 
19:45	83.2	83.2	89.7	73	73.6	0	1	338	0.00	29.900 
19:50	83.2	83.2	90.0	74	74.0	0	1	338	0.00	29.900 
19:55	83.0	83.0	89.8	75	74.2	0	0	---	0.00	29.900 
20:00	83.0	83.0	89.5	74	73.8	0	1	338	0.00	29.899 
20:05	82.8	82.8	89.1	74	73.6	0	1	338	0.00	29.899 
20:10	82.6	82.6	88.9	75	73.8	0	1	338	0.00	29.899 
20:15	82.6	82.6	88.9	75	73.8	0	0	---	0.00	29.899 
20:20	82.4	82.4	88.7	76	74.1	0	0	---	0.00	29.899 
20:25	82.2	82.2	88.5	77	74.2	0	0	---	0.00	29.899 
20:30	82.0	82.0	88.0	77	74.1	0	0	---	0.00	29.897 
20:35	81.8	81.8	87.6	77	73.9	0	0	---	0.00	29.897 
20:40	81.6	81.6	87.4	78	74.1	0	0	---	0.00	29.897 
20:45	81.4	81.4	87.1	79	74.2	0	0	---	0.00	29.894 
20:50	81.2	81.2	86.7	79	74.0	0	0	---	0.00	29.894 
20:55	81.1	81.1	86.7	80	74.3	0	0	---	0.00	29.894 
21:00	80.9	80.9	86.2	80	74.1	0	0	---	0.00	29.896 
21:05	80.5	80.5	85.5	81	74.1	0	0	---	0.00	29.896 
21:10	80.3	80.3	85.0	81	73.9	0	0	---	0.00	29.896 
21:15	80.1	80.1	84.7	82	74.1	0	0	---	0.00	29.898 
21:20	79.9	79.9	84.4	83	74.3	0	0	---	0.00	29.898 
21:25	79.6	79.6	83.8	84	74.3	0	0	---	0.00	29.898 
21:30	79.4	79.4	83.4	84	74.1	0	0	---	0.00	29.903 
21:35	79.2	79.2	82.9	84	73.9	0	0	---	0.00	29.903 
21:40	79.0	79.0	82.6	85	74.1	0	0	---	0.00	29.903 
21:45	78.8	78.8	82.1	85	73.9	0	0	---	0.00	29.907 
21:50	78.6	78.6	81.7	86	74.0	0	0	---	0.00	29.907 
21:55	78.5	78.5	81.6	87	74.3	0	0	---	0.00	29.907 
22:00	78.5	78.5	81.6	88	74.6	0	0	---	0.00	29.900 
22:05	78.3	78.3	81.2	88	74.4	0	0	---	0.00	29.900 
22:10	78.1	78.1	80.7	88	74.2	0	0	---	0.00	29.900 
22:15	77.9	77.9	80.2	88	74.0	0	0	---	0.00	29.904 
22:20	77.7	77.7	79.8	89	74.2	0	0	---	0.00	29.904 
22:25	77.6	77.6	79.6	89	74.1	0	0	---	0.00	29.904 
22:30	77.6	77.6	79.6	89	74.1	0	0	---	0.00	29.906 
22:35	77.4	77.4	79.1	90	74.2	0	0	---	0.00	29.906 
22:40	77.2	77.2	78.6	90	74.0	0	0	---	0.00	29.906 
22:45	77.2	77.2	78.6	90	74.0	0	0	---	0.00	29.906 
22:50	77.0	77.0	78.2	90	73.8	0	0	---	0.00	29.906 
22:55	76.8	76.8	77.7	90	73.6	0	0	---	0.00	29.906 
23:00	76.8	76.8	77.7	91	74.0	0	0	---	0.00	29.902 
23:05	76.7	76.7	77.5	91	73.9	0	0	---	0.00	29.902 
23:10	76.7	76.7	77.5	91	73.9	0	0	---	0.00	29.902 
23:15	76.5	76.5	77.0	91	73.7	0	0	---	0.00	29.897 
23:20	76.5	76.5	76.9	92	74.0	0	0	---	0.00	29.897 
23:25	76.3	76.3	76.5	92	73.8	0	0	---	0.00	29.897 
23:30	76.3	76.3	76.5	92	73.8	0	0	---	0.00	29.887 
23:35	76.1	76.1	76.0	92	73.6	0	0	---	0.00	29.887 
23:40	76.1	76.1	76.0	92	73.6	0	0	---	0.00	29.887 
23:45	76.0	76.0	75.8	92	73.5	0	0	---	0.00	29.888 
23:50	76.0	76.0	75.7	93	73.8	0	0	---	0.00	29.888 
23:55	76.0	76.0	75.7	93	73.8	0	0	---	0.00	29.888 

CoCoRaHS
IN-AL-39
A2 Web Hosting
Creative Commons License
GoDaddy
search engine by freefind advanced

loaded 2018-11-15 05:35:44 • last modified 2010-11-18 10:43:29
Privacy PolicyDisclaimer
• wx.awcolley.com is powered by PmWiki v.2002016 •
• all content (unless otherwise noted) © 2018 A W Colley